Time;durP1;ratioP1;P1;durP2;ratioP2;P2;SDS_P1;SDS_P2;PMS_P1;PMS_P2;Temp;Humidity;BMP_temperature;BMP_pressure;BME280_temperature;BME280_humidity;BME280_pressure;Samples;Min_cycle;Max_cycle;Signal;HPM_P1;HPM_P2
2023/07/27 00:02:17;;;;;;;1.63;0.80;;;13.20;99.20;13.30;100243.00;;;;4857490;28;98939;-66
2023/07/27 00:04:42;;;;;;;0.83;0.83;;;13.20;99.30;13.30;100244.00;;;;4855843;28;113413;-64
2023/07/27 00:07:08;;;;;;;1.43;1.10;;;13.30;99.40;13.40;100249.00;;;;4858083;28;111090;-65
2023/07/27 00:09:34;;;;;;;1.17;0.90;;;13.30;99.60;13.50;100251.00;;;;4861100;28;109521;-65
2023/07/27 00:11:59;;;;;;;1.03;0.97;;;13.40;99.70;13.50;100248.00;;;;4862808;28;108081;-65
2023/07/27 00:14:25;;;;;;;0.60;0.60;;;13.40;99.70;13.60;100236.00;;;;4859435;28;110506;-65
2023/07/27 00:16:51;;;;;;;2.80;1.20;;;13.50;99.90;13.70;100244.00;;;;4860026;28;111787;-65
2023/07/27 00:19:16;;;;;;;1.10;0.93;;;13.60;99.90;13.70;100238.00;;;;4856957;28;110863;-66
2023/07/27 00:21:42;;;;;;;0.63;0.63;;;13.60;99.90;13.80;100232.00;;;;4864091;28;82783;-65
2023/07/27 00:24:08;;;;;;;0.73;0.67;;;13.70;99.90;13.80;100232.00;;;;4863398;28;112500;-65
2023/07/27 00:26:33;;;;;;;1.30;1.10;;;13.80;99.90;13.90;100234.00;;;;4866482;28;83404;-65
2023/07/27 00:28:59;;;;;;;0.60;0.60;;;13.80;99.90;13.90;100240.00;;;;4861897;28;111336;-66
2023/07/27 00:31:24;;;;;;;1.13;0.73;;;13.70;99.90;13.90;100240.00;;;;4869412;28;82881;-65
2023/07/27 00:33:50;;;;;;;0.67;0.63;;;13.80;99.90;13.90;100249.00;;;;4866103;28;113432;-66
2023/07/27 00:36:16;;;;;;;1.40;1.00;;;13.80;99.90;13.90;100252.00;;;;4862275;28;110399;-66
2023/07/27 00:38:41;;;;;;;0.63;0.63;;;13.80;99.90;13.90;100249.00;;;;4867057;28;109296;-66
2023/07/27 00:41:08;;;;;;;0.70;0.70;;;13.80;99.90;13.80;100250.00;;;;4861986;28;108088;-66
2023/07/27 00:43:33;;;;;;;0.87;0.83;;;13.80;99.90;13.80;100250.00;;;;4863422;28;84042;-66
2023/07/27 00:45:59;;;;;;;1.23;1.10;;;13.80;99.90;13.80;100250.00;;;;4859967;28;112081;-65
2023/07/27 00:48:25;;;;;;;2.60;1.30;;;13.80;99.90;13.80;100264.00;;;;4880662;28;111412;-65
2023/07/27 00:50:51;;;;;;;1.17;1.07;;;13.80;99.90;13.70;100261.00;;;;4858876;28;109930;-66
2023/07/27 00:53:17;;;;;;;2.13;1.00;;;13.70;99.90;13.70;100258.00;;;;4854949;28;108072;-66
2023/07/27 00:55:44;;;;;;;0.63;0.40;;;13.70;99.90;13.70;100257.00;;;;4863725;28;103878;-65
2023/07/27 00:58:11;;;;;;;2.40;1.20;;;13.60;99.90;13.60;100260.00;;;;4877788;28;83837;-65
2023/07/27 01:00:40;;;;;;;1.63;0.97;;;13.60;99.90;13.50;100259.00;;;;4864482;28;92814;-65
2023/07/27 01:03:06;;;;;;;0.70;0.70;;;13.60;99.90;13.50;100253.00;;;;4860250;28;88521;-66
2023/07/27 01:05:32;;;;;;;1.30;0.93;;;13.50;99.90;13.40;100253.00;;;;4858985;28;83007;-66
2023/07/27 01:07:58;;;;;;;1.60;1.27;;;13.40;99.90;13.40;100255.00;;;;4869889;28;82982;-66
2023/07/27 01:11:12;;;;;;;0.87;0.70;;;13.40;99.90;13.30;100251.00;;;;4866925;28;82741;-65
2023/07/27 01:13:49;;;;;;;2.13;1.03;;;13.40;99.90;13.30;100259.00;;;;4863005;28;101093;-65
2023/07/27 01:16:36;;;;;;;1.70;1.17;;;13.20;99.90;13.20;100247.00;;;;4862747;28;96974;-65
2023/07/27 01:19:08;;;;;;;0.57;0.50;;;13.20;99.90;13.10;100248.00;;;;4868220;28;94223;-65
2023/07/27 01:21:45;;;;;;;2.90;1.50;;;13.20;99.90;13.10;100249.00;;;;4858320;28;92651;-64
2023/07/27 01:24:41;;;;;;;1.63;0.97;;;13.10;99.90;13.00;100244.00;;;;4873771;28;89452;-65
2023/07/27 01:27:18;;;;;;;1.20;1.00;;;13.00;99.90;13.00;100245.00;;;;4863684;28;89287;-66
2023/07/27 01:30:18;;;;;;;1.30;0.93;;;13.00;99.90;12.90;100233.00;;;;4855755;28;88107;-66
2023/07/27 01:32:46;;;;;;;1.73;1.37;;;13.00;99.90;12.90;100237.00;;;;4866044;28;87925;-66
2023/07/27 01:35:15;;;;;;;1.80;1.23;;;12.90;99.90;12.90;100245.00;;;;4868857;28;108464;-66
2023/07/27 01:37:44;;;;;;;1.53;1.43;;;12.80;99.90;12.80;100228.00;;;;4859914;28;117273;-66
2023/07/27 01:40:13;;;;;;;1.50;1.07;;;12.80;99.90;12.80;100237.00;;;;4856833;28;109898;-65
2023/07/27 01:42:41;;;;;;;1.63;1.43;;;12.80;99.90;12.80;100228.00;;;;4859941;28;87049;-66
2023/07/27 01:45:08;;;;;;;0.93;0.93;;;12.80;99.90;12.80;100228.00;;;;4872449;28;88838;-64
2023/07/27 01:47:35;;;;;;;1.47;1.10;;;12.80;99.90;12.70;100226.00;;;;4856574;28;111105;-64
2023/07/27 01:50:01;;;;;;;0.90;0.57;;;12.80;99.90;12.70;100236.00;;;;4858425;28;102106;-65
2023/07/27 01:52:27;;;;;;;1.53;1.43;;;12.70;99.90;12.70;100237.00;;;;4862029;28;109009;-64
2023/07/27 01:54:55;;;;;;;1.30;1.10;;;12.70;99.90;12.60;100235.00;;;;4855981;28;118926;-66
2023/07/27 01:57:21;;;;;;;1.93;0.83;;;12.60;99.90;12.60;100240.00;;;;4861843;28;109432;-66
2023/07/27 01:59:47;;;;;;;2.90;1.47;;;12.60;99.90;12.60;100233.00;;;;4860897;28;88092;-65
2023/07/27 02:02:14;;;;;;;1.33;1.20;;;12.50;99.90;12.50;100237.00;;;;4874419;28;108418;-65
2023/07/27 02:04:40;;;;;;;1.33;1.07;;;12.50;99.90;12.50;100239.00;;;;4858524;28;88939;-65
2023/07/27 02:07:06;;;;;;;3.40;1.40;;;12.50;99.90;12.50;100239.00;;;;4860259;28;110792;-65
2023/07/27 02:09:32;;;;;;;1.40;1.30;;;12.50;99.90;12.40;100236.00;;;;4870887;28;106893;-65
2023/07/27 02:12:24;;;;;;;1.23;1.03;;;12.40;99.90;12.40;100239.00;;;;4863337;28;108112;-65
2023/07/27 02:15:02;;;;;;;0.80;0.63;;;12.40;99.90;12.40;100242.00;;;;4864430;28;89688;-65
2023/07/27 02:17:45;;;;;;;1.33;0.90;;;12.40;99.90;12.30;100245.00;;;;4861656;28;88186;-65
2023/07/27 02:20:14;;;;;;;1.90;1.43;;;12.30;99.90;12.30;100232.00;;;;4863651;28;102112;-65
2023/07/27 02:22:42;;;;;;;0.97;0.93;;;12.30;99.90;12.20;100245.00;;;;4861448;28;88201;-66
2023/07/27 02:25:08;;;;;;;1.20;1.10;;;12.30;99.90;12.20;100242.00;;;;4862780;28;118250;-66
2023/07/27 02:27:34;;;;;;;1.90;1.00;;;12.20;99.90;12.10;100235.00;;;;4863852;28;108022;-66
2023/07/27 02:30:01;;;;;;;1.20;1.10;;;12.20;99.90;12.10;100227.00;;;;4878459;28;111821;-66
2023/07/27 02:32:27;;;;;;;1.47;1.20;;;12.10;99.90;12.10;100227.00;;;;4863005;28;86944;-66
2023/07/27 02:34:53;;;;;;;1.07;0.90;;;12.10;99.90;12.10;100231.00;;;;4857340;28;87983;-66
2023/07/27 02:37:18;;;;;;;1.23;1.13;;;12.10;99.90;12.00;100238.00;;;;4859336;28;117469;-66
2023/07/27 02:39:44;;;;;;;1.07;0.60;;;12.10;99.90;12.00;100229.00;;;;4862762;28;109968;-65
2023/07/27 02:42:10;;;;;;;1.70;1.17;;;12.00;99.90;12.00;100220.00;;;;4861465;28;109040;-65
2023/07/27 02:44:35;;;;;;;3.43;1.73;;;12.00;99.90;11.90;100227.00;;;;4866755;28;88276;-66
2023/07/27 02:47:01;;;;;;;0.87;0.87;;;11.90;99.90;11.90;100221.00;;;;4862147;28;117622;-66
2023/07/27 02:49:27;;;;;;;4.27;1.47;;;12.00;99.90;11.90;100232.00;;;;4855039;28;109063;-65
2023/07/27 02:51:52;;;;;;;4.37;1.40;;;11.90;99.90;11.90;100225.00;;;;4859976;28;109587;-65
2023/07/27 02:54:18;;;;;;;1.60;1.37;;;11.90;99.90;11.90;100236.00;;;;4855273;28;117669;-65
2023/07/27 02:56:44;;;;;;;1.10;1.00;;;11.90;99.90;11.90;100233.00;;;;4856406;28;116815;-66
2023/07/27 02:59:15;;;;;;;0.90;0.80;;;11.90;99.90;11.80;100220.00;;;;4855368;28;110454;-66
2023/07/27 03:01:40;;;;;;;2.27;1.40;;;11.90;99.90;11.80;100224.00;;;;4859948;28;87915;-66
2023/07/27 03:04:06;;;;;;;3.00;0.90;;;11.80;99.90;11.80;100235.00;;;;4857751;28;89809;-67
2023/07/27 03:06:32;;;;;;;1.67;1.00;;;11.80;99.90;11.70;100235.00;;;;4858723;28;93095;-66
2023/07/27 03:08:57;;;;;;;1.87;1.43;;;11.80;99.90;11.70;100233.00;;;;4860932;28;88059;-66
2023/07/27 03:11:23;;;;;;;1.30;1.20;;;11.70;99.90;11.70;100239.00;;;;4857140;28;109008;-66
2023/07/27 03:13:49;;;;;;;1.23;1.13;;;11.70;99.90;11.60;100242.00;;;;4862491;28;118986;-66
2023/07/27 03:16:15;;;;;;;1.10;1.00;;;11.70;99.90;11.60;100241.00;;;;4856057;28;118395;-67
2023/07/27 03:18:41;;;;;;;0.93;0.93;;;11.60;99.90;11.50;100242.00;;;;4876562;28;88022;-66
2023/07/27 03:21:06;;;;;;;2.17;1.10;;;11.60;99.90;11.50;100238.00;;;;4857107;28;109137;-66
2023/07/27 03:23:33;;;;;;;1.27;1.17;;;11.50;99.90;11.40;100229.00;;;;4857490;28;88608;-66
2023/07/27 03:25:58;;;;;;;1.03;0.90;;;11.50;99.90;11.40;100235.00;;;;4858748;28;87931;-66
2023/07/27 03:28:24;;;;;;;0.73;0.73;;;11.50;99.90;11.40;100235.00;;;;4857082;28;89255;-66
2023/07/27 03:30:50;;;;;;;2.17;1.50;;;11.40;99.90;11.30;100239.00;;;;4858965;28;110092;-66
2023/07/27 03:33:16;;;;;;;1.90;1.20;;;11.40;99.90;11.30;100243.00;;;;4859114;28;117680;-66
2023/07/27 03:35:42;;;;;;;1.33;1.13;;;11.30;99.90;11.20;100237.00;;;;4854973;28;116992;-66
2023/07/27 03:38:07;;;;;;;1.83;1.30;;;11.30;99.90;11.20;100230.00;;;;4851091;28;88108;-67
2023/07/27 03:40:33;;;;;;;1.70;1.37;;;11.20;99.90;11.10;100232.00;;;;4854229;28;108658;-66
2023/07/27 03:42:59;;;;;;;1.37;1.30;;;11.20;99.90;11.10;100224.00;;;;4857253;28;117971;-67
2023/07/27 03:45:53;;;;;;;1.80;1.37;;;11.20;99.90;11.10;100224.00;;;;4856274;28;116191;-66
2023/07/27 03:48:18;;;;;;;2.97;1.80;;;11.20;99.90;11.10;100227.00;;;;4854246;28;87991;-65
2023/07/27 03:50:44;;;;;;;1.40;1.30;;;11.10;99.90;11.10;100231.00;;;;4874029;28;108415;-65
2023/07/27 03:53:10;;;;;;;2.30;1.33;;;11.10;99.90;11.10;100230.00;;;;4869190;28;119195;-65
2023/07/27 03:55:35;;;;;;;1.30;1.20;;;11.10;99.90;11.10;100230.00;;;;4853304;28;111874;-65
2023/07/27 03:58:01;;;;;;;2.00;1.20;;;11.10;99.90;11.10;100226.00;;;;4858515;28;110554;-66
2023/07/27 04:00:36;;;;;;;1.53;1.43;;;11.10;99.90;11.10;100223.00;;;;4854122;28;88422;-66
2023/07/27 04:03:02;;;;;;;2.93;1.27;;;11.10;99.90;11.10;100216.00;;;;4859719;28;117808;-66
2023/07/27 04:05:28;;;;;;;1.20;1.00;;;11.10;99.90;11.10;100216.00;;;;4877037;28;115726;-65
2023/07/27 04:07:53;;;;;;;2.00;1.57;;;11.20;99.90;11.20;100212.00;;;;4857970;28;90204;-65
2023/07/27 04:10:19;;;;;;;1.40;1.20;;;10.90;99.90;11.20;100224.00;;;;4855995;28;109110;-65
2023/07/27 04:12:45;;;;;;;3.67;1.50;;;11.20;99.90;11.30;100218.00;;;;4855262;28;117176;-65
2023/07/27 04:15:11;;;;;;;1.57;1.47;;;11.30;99.90;11.30;100216.00;;;;4858771;28;117593;-65
2023/07/27 04:17:36;;;;;;;0.93;0.90;;;11.30;99.90;11.40;100213.00;;;;4858981;28;102635;-65
2023/07/27 04:20:02;;;;;;;1.77;1.10;;;11.40;99.90;11.50;100217.00;;;;4866059;28;108495;-65
2023/07/27 04:22:28;;;;;;;2.13;1.83;;;11.50;99.90;11.50;100219.00;;;;4866011;28;94192;-66
2023/07/27 04:24:53;;;;;;;1.63;1.10;;;11.50;99.90;11.60;100219.00;;;;4858215;28;116914;-65
2023/07/27 04:27:19;;;;;;;1.77;1.33;;;11.60;99.90;11.70;100217.00;;;;4869044;28;109893;-67
2023/07/27 04:29:45;;;;;;;1.30;0.80;;;11.70;99.90;11.80;100224.00;;;;4861970;28;87760;-65
2023/07/27 04:32:10;;;;;;;1.97;1.20;;;11.70;99.90;11.80;100219.00;;;;4857667;28;117514;-65
2023/07/27 04:34:36;;;;;;;1.40;1.30;;;11.80;99.90;12.00;100217.00;;;;4861334;28;119024;-66
2023/07/27 04:37:03;;;;;;;2.17;1.23;;;11.90;99.90;12.10;100221.00;;;;4876559;28;110075;-66
2023/07/27 04:39:28;;;;;;;2.67;1.47;;;12.00;99.90;12.20;100224.00;;;;4856982;28;101299;-66
2023/07/27 04:41:54;;;;;;;1.53;1.40;;;12.10;99.90;12.30;100218.00;;;;4853350;28;116207;-66
2023/07/27 04:44:20;;;;;;;2.40;1.80;;;12.50;99.90;12.50;100218.00;;;;4859723;28;117735;-66
2023/07/27 04:46:45;;;;;;;1.37;1.27;;;12.40;99.90;12.60;100220.00;;;;4856592;28;108965;-66
2023/07/27 04:49:11;;;;;;;2.73;1.70;;;12.50;99.90;12.70;100221.00;;;;4851630;28;109146;-66
2023/07/27 04:51:37;;;;;;;2.40;1.20;;;12.70;99.90;12.90;100216.00;;;;4834368;28;90049;-66
2023/07/27 04:54:03;;;;;;;5.43;1.67;;;12.80;99.90;13.00;100211.00;;;;4857168;28;100544;-66
2023/07/27 04:56:29;;;;;;;3.30;2.27;;;13.00;99.90;13.20;100220.00;;;;4852861;28;88411;-66
2023/07/27 04:58:55;;;;;;;1.97;1.50;;;13.10;99.90;13.30;100214.00;;;;4852650;28;108492;-67
2023/07/27 05:01:21;;;;;;;1.63;1.53;;;13.20;99.90;13.40;100216.00;;;;4853240;28;87946;-67
2023/07/27 05:03:47;;;;;;;1.47;1.23;;;13.40;99.90;13.60;100208.00;;;;4858051;28;116458;-65
2023/07/27 05:06:12;;;;;;;1.20;1.00;;;13.50;99.90;13.80;100223.00;;;;4851571;28;110695;-66
2023/07/27 05:08:38;;;;;;;1.30;1.07;;;13.70;99.90;14.00;100209.00;;;;4852489;28;107255;-66
2023/07/27 05:11:06;;;;;;;1.87;1.77;;;13.80;99.90;14.10;100219.00;;;;4856506;28;117180;-66
2023/07/27 05:13:35;;;;;;;3.27;1.80;;;14.00;99.90;14.30;100210.00;;;;4858530;28;88907;-66
2023/07/27 05:16:01;;;;;;;1.90;1.07;;;14.20;99.90;14.50;100217.00;;;;4866509;28;87772;-66
2023/07/27 05:18:27;;;;;;;2.07;1.60;;;14.30;99.90;14.60;100211.00;;;;4857756;28;88330;-66
2023/07/27 05:20:58;;;;;;;2.00;1.23;;;14.50;99.90;14.70;100203.00;;;;4862577;28;93202;-66
2023/07/27 05:23:23;;;;;;;2.00;1.47;;;14.60;99.90;14.80;100205.00;;;;4856475;28;93096;-67
2023/07/27 05:25:49;;;;;;;1.33;1.15;;;14.70;99.90;15.00;100210.00;;;;4855928;28;110485;-66
2023/07/27 05:28:15;;;;;;;13.50;3.27;;;14.90;99.90;15.10;100210.00;;;;4853854;28;92087;-66
2023/07/27 05:30:44;;;;;;;4.80;1.85;;;15.00;99.90;15.20;100207.00;;;;4858209;28;110137;-65
2023/07/27 05:33:09;;;;;;;0.95;0.77;;;15.10;99.90;15.40;100205.00;;;;4856282;28;118588;-65
2023/07/27 05:35:38;;;;;;;1.13;0.80;;;15.20;99.90;15.50;100209.00;;;;4856619;28;111406;-66
2023/07/27 05:38:03;;;;;;;1.17;1.08;;;15.40;99.90;15.70;100208.00;;;;4857490;28;110602;-66
2023/07/27 05:40:29;;;;;;;1.27;1.17;;;15.50;99.90;15.90;100195.00;;;;4862545;28;118352;-66
2023/07/27 05:42:55;;;;;;;5.03;1.90;;;15.70;99.90;16.00;100209.00;;;;4860792;28;116637;-66
2023/07/27 05:45:20;;;;;;;3.05;1.13;;;15.80;99.90;16.20;100211.00;;;;4859961;28;111341;-66
2023/07/27 05:47:46;;;;;;;6.55;1.52;;;16.00;99.90;16.40;100203.00;;;;4858034;28;107323;-66
2023/07/27 05:50:11;;;;;;;2.25;1.38;;;16.20;99.90;16.60;100199.00;;;;4856189;28;116990;-64
2023/07/27 05:52:37;;;;;;;1.13;1.02;;;16.40;99.90;16.80;100189.00;;;;4861503;28;88481;-65
2023/07/27 05:55:03;;;;;;;5.50;2.08;;;16.60;99.90;16.90;100195.00;;;;4855687;28;109482;-65
2023/07/27 05:57:29;;;;;;;3.90;1.40;;;16.70;99.90;17.00;100206.00;;;;4861783;28;87875;-65
2023/07/27 05:59:55;;;;;;;2.22;0.70;;;16.90;99.90;17.10;100200.00;;;;4865833;28;88934;-65
2023/07/27 06:02:20;;;;;;;0.85;0.70;;;17.00;99.90;17.20;100191.00;;;;4862036;28;88152;-64
2023/07/27 06:04:46;;;;;;;0.90;0.80;;;17.00;99.90;17.30;100200.00;;;;4862768;28;111418;-65
2023/07/27 06:07:11;;;;;;;1.52;0.73;;;17.20;99.90;17.40;100192.00;;;;4862968;28;108295;-64
2023/07/27 06:09:37;;;;;;;1.08;0.70;;;17.30;99.90;17.50;100195.00;;;;4856839;28;115763;-66
2023/07/27 06:12:11;;;;;;;3.08;1.35;;;17.30;99.70;17.60;100198.00;;;;4859803;28;117326;-66
2023/07/27 06:14:40;;;;;;;1.77;0.65;;;17.50;99.30;17.70;100196.00;;;;4861461;28;87940;-65
2023/07/27 06:17:06;;;;;;;0.60;0.60;;;17.50;99.00;17.90;100192.00;;;;4853219;28;87664;-66
2023/07/27 06:19:32;;;;;;;0.73;0.60;;;17.60;98.70;18.10;100198.00;;;;4855054;28;89680;-65
2023/07/27 06:21:58;;;;;;;2.60;1.00;;;17.80;98.40;18.20;100186.00;;;;4857073;28;111594;-65
2023/07/27 06:24:23;;;;;;;1.10;0.75;;;18.00;97.90;18.40;100193.00;;;;4855613;28;110599;-65
2023/07/27 06:26:49;;;;;;;0.95;0.77;;;18.20;97.50;18.60;100183.00;;;;4869814;28;107698;-66
2023/07/27 06:29:14;;;;;;;2.10;1.15;;;18.40;97.10;18.70;100189.00;;;;4859700;28;118316;-65
2023/07/27 06:31:40;;;;;;;1.42;0.93;;;18.50;96.30;18.90;100178.00;;;;4864759;28;118059;-65
2023/07/27 06:34:06;;;;;;;4.80;0.70;;;18.70;96.00;19.00;100183.00;;;;4859824;28;87790;-65
2023/07/27 06:36:31;;;;;;;2.03;1.20;;;18.80;95.30;19.10;100181.00;;;;4860805;28;108241;-66
2023/07/27 06:38:57;;;;;;;1.48;0.63;;;18.90;95.40;19.30;100194.00;;;;4859909;28;115390;-66
2023/07/27 06:41:25;;;;;;;0.63;0.63;;;19.10;94.90;19.50;100182.00;;;;4857454;28;88752;-66
2023/07/27 06:43:52;;;;;;;1.00;0.90;;;19.30;94.20;19.60;100191.00;;;;4874761;28;89538;-65
2023/07/27 06:46:18;;;;;;;0.73;0.73;;;19.50;93.30;19.70;100181.00;;;;4868856;28;87791;-65
2023/07/27 06:48:46;;;;;;;0.68;0.68;;;19.50;92.90;19.80;100181.00;;;;4864068;28;88141;-65
2023/07/27 06:51:14;;;;;;;1.05;0.70;;;19.60;92.30;19.80;100174.00;;;;4860064;28;88350;-65
2023/07/27 06:53:40;;;;;;;1.73;0.98;;;19.60;91.90;19.90;100173.00;;;;4864925;28;91160;-66
2023/07/27 06:56:06;;;;;;;1.50;0.93;;;19.70;92.20;20.10;100167.00;;;;4859398;28;109375;-66
2023/07/27 06:58:32;;;;;;;0.73;0.73;;;19.90;91.80;20.20;100181.00;;;;4860572;28;118206;-65
2023/07/27 07:00:58;;;;;;;0.77;0.77;;;20.00;91.60;20.40;100172.00;;;;4856186;28;87958;-66
2023/07/27 07:03:24;;;;;;;0.93;0.60;;;20.20;91.50;20.60;100169.00;;;;4864458;28;88114;-66
2023/07/27 07:05:50;;;;;;;1.60;1.00;;;20.40;90.10;20.70;100177.00;;;;4859125;28;87899;-65
2023/07/27 07:08:16;;;;;;;3.17;1.17;;;20.50;90.10;20.90;100182.00;;;;4859503;28;107400;-66
2023/07/27 07:10:41;;;;;;;0.70;0.70;;;20.70;88.90;21.00;100171.00;;;;4865270;28;104021;-66
2023/07/27 07:13:07;;;;;;;1.95;0.75;;;20.80;88.10;21.20;100167.00;;;;4859831;28;96734;-66
2023/07/27 07:15:33;;;;;;;1.33;1.00;;;21.00;87.00;21.30;100165.00;;;;4860451;28;108250;-66
2023/07/27 07:17:58;;;;;;;5.43;1.67;;;21.10;85.60;21.40;100171.00;;;;4859909;28;115587;-66
2023/07/27 07:20:24;;;;;;;1.67;1.17;;;21.10;84.10;21.30;100153.00;;;;4860679;28;118111;-66
2023/07/27 07:22:50;;;;;;;0.57;0.57;;;21.10;82.70;21.40;100159.00;;;;4858394;28;94602;-66
2023/07/27 07:25:16;;;;;;;7.32;1.77;;;21.20;82.70;21.40;100156.00;;;;4858383;28;87544;-66
2023/07/27 07:27:42;;;;;;;0.82;0.70;;;21.30;81.60;21.50;100159.00;;;;4855946;28;108364;-66
2023/07/27 07:30:08;;;;;;;3.03;1.70;;;21.30;81.30;21.50;100155.00;;;;4864236;28;88710;-66
2023/07/27 07:32:34;;;;;;;1.10;1.00;;;21.30;80.50;21.60;100155.00;;;;4855070;28;88901;-67
2023/07/27 07:35:00;;;;;;;0.70;0.55;;;21.40;80.80;21.70;100156.00;;;;4859221;28;87948;-65
2023/07/27 07:37:26;;;;;;;2.15;0.90;;;21.50;80.70;21.80;100163.00;;;;4860014;28;100658;-66
2023/07/27 07:39:52;;;;;;;1.15;0.65;;;21.60;80.90;22.00;100157.00;;;;4866478;28;87783;-66
2023/07/27 07:42:17;;;;;;;2.65;1.40;;;21.70;79.00;22.10;100160.00;;;;4863399;28;110981;-66
2023/07/27 07:44:43;;;;;;;1.25;1.15;;;21.80;77.80;22.10;100154.00;;;;4861314;28;107090;-66
2023/07/27 07:47:09;;;;;;;1.20;1.10;;;21.90;77.40;22.20;100152.00;;;;4857438;28;118913;-66
2023/07/27 07:49:34;;;;;;;0.65;0.65;;;22.00;77.00;22.30;100148.00;;;;4861998;28;116368;-65
2023/07/27 07:52:00;;;;;;;1.40;0.88;;;22.10;76.10;22.30;100147.00;;;;4866011;28;110318;-66
2023/07/27 07:54:32;;;;;;;0.85;0.80;;;22.10;74.30;22.40;100147.00;;;;4862247;28;87855;-67
2023/07/27 07:56:58;;;;;;;1.73;1.10;;;22.20;72.80;22.30;100143.00;;;;4864033;28;89941;-66
2023/07/27 07:59:24;;;;;;;3.67;1.00;;;22.20;71.60;22.30;100147.00;;;;4859591;28;89158;-67
2023/07/27 08:01:50;;;;;;;1.45;1.30;;;22.10;71.80;22.30;100140.00;;;;4861992;28;95001;-66
2023/07/27 08:04:17;;;;;;;2.28;0.80;;;22.10;72.10;22.40;100146.00;;;;4863591;28;87694;-66
2023/07/27 09:10:48;;;;;;;1.10;0.82;;;22.90;60.90;24.50;100070.00;;;;5000576;27;80992;-66
2023/07/27 10:57:46;;;;;;;2.88;1.38;;;21.80;62.40;21.90;100026.00;;;;5025925;27;81855;-66
2023/07/27 11:00:13;;;;;;;1.08;0.95;;;21.70;65.40;21.70;100028.00;;;;5031845;27;81238;-66
2023/07/27 11:02:42;;;;;;;2.25;1.23;;;21.60;67.00;21.40;100018.00;;;;5027179;27;85866;-66
2023/07/27 11:05:08;;;;;;;0.93;0.57;;;21.30;68.10;21.30;100016.00;;;;5028640;27;81054;-65
2023/07/27 11:07:39;;;;;;;1.48;1.27;;;21.20;69.40;21.10;100004.00;;;;5029958;27;81931;-65
2023/07/27 11:10:12;;;;;;;1.50;1.00;;;21.00;70.80;20.90;99998.00;;;;5034350;27;81711;-66
2023/07/27 11:12:52;;;;;;;0.52;0.52;;;20.80;72.40;20.60;99992.00;;;;5034768;27;83753;-67
2023/07/27 11:15:27;;;;;;;2.13;0.85;;;20.60;73.40;20.70;99986.00;;;;5029200;27;80992;-67
2023/07/27 11:17:56;;;;;;;0.55;0.55;;;20.50;73.40;20.80;99975.00;;;;5028860;27;81695;-67
2023/07/27 11:20:24;;;;;;;0.85;0.73;;;20.60;72.80;21.10;99976.00;;;;5025049;27;81761;-67
2023/07/27 11:22:52;;;;;;;1.20;0.70;;;20.70;72.10;21.30;99976.00;;;;5036988;27;81671;-67
2023/07/27 11:25:18;;;;;;;0.77;0.73;;;21.00;71.80;21.60;99967.00;;;;5036565;27;80911;-67
2023/07/27 11:27:49;;;;;;;0.68;0.68;;;21.20;70.80;21.90;99966.00;;;;5028285;27;81058;-67
2023/07/27 11:30:17;;;;;;;0.65;0.55;;;21.50;70.20;22.20;99954.00;;;;5029109;27;81144;-67
2023/07/27 11:32:56;;;;;;;4.88;1.00;;;21.80;68.50;22.40;99951.00;;;;5028485;27;81100;-67
2023/07/27 11:35:22;;;;;;;6.57;1.45;;;22.10;67.40;22.50;99953.00;;;;5032764;27;82223;-66
2023/07/27 11:37:47;;;;;;;1.55;0.82;;;22.30;66.30;22.60;99955.00;;;;5031365;27;100563;-67
2023/07/27 11:40:20;;;;;;;1.83;0.52;;;22.30;66.60;22.50;99948.00;;;;5025509;27;111209;-66
2023/07/27 11:42:47;;;;;;;2.55;0.75;;;22.30;67.10;22.40;99951.00;;;;5030919;27;104757;-66
2023/07/27 11:45:13;;;;;;;0.77;0.77;;;22.20;68.00;22.30;99938.00;;;;5030404;27;81133;-67
2023/07/27 11:47:39;;;;;;;1.27;0.80;;;22.10;68.90;22.30;99940.00;;;;5029320;27;81474;-65
2023/07/27 11:50:10;;;;;;;1.35;0.63;;;22.10;68.90;22.30;99931.00;;;;5030991;27;98353;-66
2023/07/27 11:52:39;;;;;;;4.15;1.20;;;22.10;68.40;22.30;99935.00;;;;5029632;27;86923;-68
2023/07/27 11:55:06;;;;;;;1.63;0.88;;;22.10;67.50;22.20;99929.00;;;;5031338;27;88601;-66
2023/07/27 11:57:32;;;;;;;1.50;0.88;;;22.10;66.10;22.10;99936.00;;;;5028484;27;97864;-67
2023/07/27 12:00:13;;;;;;;0.80;0.50;;;22.00;66.30;21.90;99942.00;;;;5023930;27;83270;-67
2023/07/27 12:02:49;;;;;;;1.17;0.65;;;21.80;66.00;21.80;99947.00;;;;5027017;27;80948;-66
2023/07/27 12:05:19;;;;;;;1.85;0.73;;;21.70;65.10;21.90;99928.00;;;;5031550;27;81378;-66
2023/07/27 12:07:45;;;;;;;1.80;0.60;;;21.70;65.00;22.10;99920.00;;;;5022766;27;82245;-66
2023/07/27 12:10:13;;;;;;;1.13;1.05;;;21.80;64.10;22.30;99910.00;;;;5020234;27;110904;-66
2023/07/27 12:12:55;;;;;;;0.95;0.60;;;22.00;63.70;22.50;99902.00;;;;5015844;27;102156;-66
2023/07/27 12:15:27;;;;;;;1.23;0.68;;;22.10;62.70;22.60;99903.00;;;;5013137;27;81212;-67
2023/07/27 12:17:59;;;;;;;2.03;1.08;;;22.30;62.30;22.80;99911.00;;;;5028127;27;83458;-67
2023/07/27 12:20:30;;;;;;;1.55;0.65;;;22.50;62.00;22.80;99924.00;;;;5014327;27;81072;-67
2023/07/27 12:22:57;;;;;;;1.48;0.85;;;22.50;63.20;22.00;99943.00;;;;5018705;27;83964;-69
2023/07/27 12:25:26;;;;;;;3.03;1.55;;;22.10;71.60;20.70;99950.00;;;;5012068;27;81019;-66
2023/07/27 12:27:52;;;;;;;1.65;1.20;;;21.20;77.80;19.80;99931.00;;;;5019206;27;81355;-65
2023/07/27 12:30:17;;;;;;;1.92;0.95;;;20.20;81.40;19.00;99941.00;;;;5012834;27;81369;-64
2023/07/27 12:32:43;;;;;;;3.30;0.80;;;19.50;84.80;18.60;99941.00;;;;5015230;27;81063;-62
2023/07/27 12:35:10;;;;;;;3.20;0.82;;;18.90;87.90;18.30;99927.00;;;;5015070;27;109110;-64
2023/07/27 12:37:36;;;;;;;1.08;0.90;;;18.50;90.50;18.00;99925.00;;;;5013328;27;82227;-64
2023/07/27 12:40:03;;;;;;;0.90;0.90;;;18.00;92.10;17.80;99928.00;;;;5018150;27;111404;-64
2023/07/27 12:42:28;;;;;;;2.63;1.10;;;17.90;93.20;17.80;99934.00;;;;5017306;27;82149;-65
2023/07/27 12:44:55;;;;;;;1.48;1.02;;;17.80;94.20;17.70;99931.00;;;;5014069;27;109139;-64
2023/07/27 12:47:21;;;;;;;1.85;1.00;;;17.70;95.40;17.80;99927.00;;;;5015806;27;81417;-65
2023/07/27 12:49:47;;;;;;;3.00;1.55;;;17.70;96.20;17.90;99925.00;;;;5017915;27;109644;-65
2023/07/27 12:52:12;;;;;;;1.40;1.10;;;17.80;97.20;18.10;99907.00;;;;5011602;27;110971;-65
2023/07/27 12:54:38;;;;;;;0.98;0.98;;;17.90;97.50;18.30;99903.00;;;;5015327;27;108198;-66
2023/07/27 12:57:04;;;;;;;1.17;1.08;;;18.10;97.90;18.50;99897.00;;;;5015017;27;93576;-69
2023/07/27 12:59:30;;;;;;;1.48;1.13;;;18.20;98.00;18.70;99898.00;;;;5012873;27;98474;-69
2023/07/27 13:01:55;;;;;;;3.90;1.38;;;18.40;98.10;18.80;99897.00;;;;5015342;27;111041;-68
2023/07/27 13:04:21;;;;;;;2.17;0.80;;;18.60;97.80;19.00;99896.00;;;;5009889;27;107899;-72
2023/07/27 13:06:47;;;;;;;0.70;0.70;;;18.70;97.40;19.10;99889.00;;;;5018828;27;109421;-70
2023/07/27 13:09:13;;;;;;;1.30;1.13;;;18.90;97.40;19.30;99896.00;;;;5010055;27;110259;-69
2023/07/27 13:11:38;;;;;;;1.63;0.80;;;19.00;97.40;19.40;99899.00;;;;5011776;27;109305;-70
2023/07/27 13:14:04;;;;;;;1.73;1.13;;;19.20;97.50;19.40;99897.00;;;;5014566;27;81924;-69
2023/07/27 13:16:33;;;;;;;0.60;0.60;;;19.20;97.60;19.40;99901.00;;;;5017551;27;87442;-71
2023/07/27 13:18:59;;;;;;;1.90;1.23;;;19.20;97.60;19.40;99897.00;;;;5000073;27;82138;-70
2023/07/27 13:21:25;;;;;;;1.55;0.93;;;19.20;97.70;19.30;99900.00;;;;5012788;27;100858;-68
2023/07/27 13:23:50;;;;;;;1.38;1.05;;;19.20;97.80;19.20;99896.00;;;;5005178;27;81305;-70
2023/07/27 13:26:16;;;;;;;1.13;0.85;;;19.10;98.00;19.10;99888.00;;;;5012088;27;81330;-68
2023/07/27 13:28:42;;;;;;;1.15;0.98;;;19.00;98.40;19.00;99885.00;;;;5008543;27;111221;-69
2023/07/27 13:31:11;;;;;;;2.15;1.10;;;18.90;99.10;18.90;99893.00;;;;5008157;27;87871;-67
2023/07/27 13:33:37;;;;;;;1.25;1.13;;;18.80;99.40;18.80;99894.00;;;;5001097;27;82465;-68
2023/07/27 13:36:03;;;;;;;1.35;0.70;;;18.70;99.90;18.80;99893.00;;;;5001313;27;111381;-68